createdAt,value
2018-06-25T00:00:04.654Z,2.33
2018-06-25T00:02:35.517Z,2.93
2018-06-25T00:05:04.650Z,2.13
2018-06-25T00:07:33.986Z,1.90
2018-06-25T00:10:02.873Z,2.57
2018-06-25T00:12:32.649Z,2.43
2018-06-25T00:15:02.114Z,5.43
2018-06-25T00:17:31.116Z,2.60
2018-06-25T00:20:00.692Z,2.53
2018-06-25T00:22:29.368Z,2.50
2018-06-25T00:24:59.068Z,1.93
2018-06-25T00:27:28.163Z,1.80
2018-06-25T00:29:58.432Z,6.47
2018-06-25T00:32:27.353Z,3.33
2018-06-25T00:34:57.386Z,1.83
2018-06-25T00:37:26.743Z,1.70
2018-06-25T00:39:56.636Z,1.67
2018-06-25T00:42:26.458Z,2.30
2018-06-25T00:44:55.127Z,3.23
2018-06-25T00:47:24.166Z,1.40
2018-06-25T00:49:52.933Z,2.40
2018-06-25T00:52:22.844Z,2.13
2018-06-25T00:54:51.823Z,1.90
2018-06-25T00:57:21.813Z,3.73
2018-06-25T00:59:54.455Z,3.40
2018-06-25T01:02:23.561Z,1.53
2018-06-25T01:04:52.474Z,5.60
2018-06-25T01:07:21.558Z,2.20
2018-06-25T01:09:50.514Z,5.50
2018-06-25T01:12:20.184Z,1.80
2018-06-25T01:14:49.059Z,1.90
2018-06-25T01:17:18.534Z,2.07
2018-06-25T01:19:48.606Z,2.60
2018-06-25T01:22:18.127Z,1.80
2018-06-25T01:24:48.087Z,4.27
2018-06-25T01:27:18.492Z,2.27
2018-06-25T01:29:48.093Z,3.30
2018-06-25T01:32:17.725Z,3.67
2018-06-25T01:34:46.764Z,3.30
2018-06-25T01:37:16.139Z,3.43
2018-06-25T01:39:45.011Z,4.10
2018-06-25T01:42:14.036Z,1.80
2018-06-25T01:44:42.896Z,4.63
2018-06-25T01:47:11.857Z,2.00
2018-06-25T01:49:41.393Z,1.60
2018-06-25T01:52:10.295Z,4.47
2018-06-25T01:54:39.304Z,2.43
2018-06-25T01:57:11.103Z,2.77
2018-06-25T01:59:40.112Z,2.33
2018-06-25T02:02:09.737Z,2.50
2018-06-25T02:04:39.191Z,2.07
2018-06-25T02:07:08.232Z,2.33
2018-06-25T02:09:37.198Z,2.30
2018-06-25T02:12:08.463Z,2.27
2018-06-25T02:14:37.848Z,2.57
2018-06-25T02:17:06.881Z,2.97
2018-06-25T02:19:35.869Z,2.73
2018-06-25T02:22:05.024Z,7.97
2018-06-25T02:24:33.890Z,2.83
2018-06-25T02:27:03.577Z,3.33
2018-06-25T02:29:32.685Z,3.90
2018-06-25T02:32:01.796Z,2.47
2018-06-25T02:34:31.217Z,3.53
2018-06-25T02:36:59.607Z,2.17
2018-06-25T02:39:29.163Z,2.40
2018-06-25T02:41:58.235Z,2.97
2018-06-25T02:44:27.042Z,2.47
2018-06-25T02:46:57.072Z,2.70
2018-06-25T02:49:26.325Z,2.07
2018-06-25T02:51:55.130Z,2.40
2018-06-25T02:54:24.524Z,2.63
2018-06-25T02:56:53.267Z,4.87
2018-06-25T02:59:23.344Z,2.40
2018-06-25T03:01:52.874Z,2.23
2018-06-25T03:04:22.740Z,2.70
2018-06-25T03:06:52.295Z,4.13
2018-06-25T03:09:21.389Z,3.93
2018-06-25T03:11:50.355Z,2.60
2018-06-25T03:14:19.457Z,2.27
2018-06-25T03:16:49.036Z,3.00
2018-06-25T03:19:18.649Z,2.90
2018-06-25T03:21:48.790Z,2.80
2018-06-25T03:24:18.317Z,2.70
2018-06-25T03:26:48.083Z,2.43
2018-06-25T03:29:17.068Z,2.33
2018-06-25T03:31:46.711Z,3.40
2018-06-25T03:34:16.309Z,3.27
2018-06-25T03:36:45.500Z,3.10
2018-06-25T03:39:15.425Z,3.33
2018-06-25T03:41:44.850Z,3.90
2018-06-25T03:44:15.051Z,4.10
2018-06-25T03:46:44.283Z,2.30
2018-06-25T03:49:14.821Z,2.87
2018-06-25T03:51:44.685Z,2.90
2018-06-25T03:54:13.939Z,3.57
2018-06-25T03:56:42.783Z,2.57
2018-06-25T03:59:12.157Z,4.40
2018-06-25T04:01:41.134Z,5.40
2018-06-25T04:04:10.620Z,2.17
2018-06-25T04:06:39.505Z,4.87
2018-06-25T04:09:10.748Z,2.57
2018-06-25T04:11:40.128Z,4.83
2018-06-25T04:14:10.176Z,6.27
2018-06-25T04:16:39.946Z,2.07
2018-06-25T04:19:10.136Z,2.60
2018-06-25T04:21:39.600Z,5.33
2018-06-25T04:24:09.276Z,2.00
2018-06-25T04:26:38.885Z,6.27
2018-06-25T04:29:08.636Z,2.83
2018-06-25T04:31:39.813Z,5.33
2018-06-25T04:34:09.876Z,2.83
2018-06-25T04:36:42.043Z,5.10
2018-06-25T04:39:11.846Z,3.77
2018-06-25T04:41:41.370Z,2.13
2018-06-25T04:44:12.069Z,2.40
2018-06-25T04:46:41.379Z,4.93
2018-06-25T04:49:09.846Z,3.57
2018-06-25T04:51:38.744Z,3.30
2018-06-25T04:54:07.353Z,2.87
2018-06-25T04:56:36.979Z,2.90
2018-06-25T04:59:06.469Z,2.87
2018-06-25T05:01:37.864Z,3.43
2018-06-25T05:04:06.781Z,3.10
2018-06-25T05:06:35.537Z,2.90
2018-06-25T05:09:08.870Z,5.77
2018-06-25T05:11:38.503Z,2.70
2018-06-25T05:14:08.889Z,3.47
2018-06-25T05:16:38.329Z,3.00
2018-06-25T05:19:07.501Z,2.93
2018-06-25T05:21:36.616Z,3.07
2018-06-25T05:24:05.453Z,5.47
2018-06-25T05:26:37.837Z,6.37
2018-06-25T05:29:06.767Z,2.83
2018-06-25T05:31:36.281Z,4.50
2018-06-25T05:34:06.646Z,4.60
2018-06-25T05:36:35.623Z,3.10
2018-06-25T05:39:07.069Z,4.60
2018-06-25T05:41:36.646Z,3.63
2018-06-25T05:44:05.482Z,3.13
2018-06-25T05:46:34.991Z,3.27
2018-06-25T05:49:04.453Z,2.80
2018-06-25T05:51:34.375Z,3.83
2018-06-25T05:54:03.934Z,6.90
2018-06-25T05:56:33.862Z,9.50
2018-06-25T05:59:04.753Z,7.53
2018-06-25T06:01:34.090Z,5.93
2018-06-25T06:04:04.160Z,4.30
2018-06-25T06:06:34.313Z,4.23
2018-06-25T06:09:03.823Z,8.23
2018-06-25T06:11:34.029Z,7.50
2018-06-25T06:14:03.224Z,6.77
2018-06-25T06:16:32.144Z,4.63
2018-06-25T06:19:01.762Z,8.27
2018-06-25T06:21:32.618Z,4.07
2018-06-25T06:24:02.521Z,6.33
2018-06-25T06:26:31.289Z,6.50
2018-06-25T06:29:00.230Z,3.77
2018-06-25T06:31:29.148Z,10.63
2018-06-25T06:33:58.268Z,10.10
2018-06-25T06:36:27.217Z,10.73
2018-06-25T06:38:57.164Z,9.50
2018-06-25T06:41:27.629Z,6.70
2018-06-25T06:43:56.252Z,9.00
2018-06-25T06:46:25.152Z,14.40
2018-06-25T06:48:53.889Z,8.40
2018-06-25T06:51:24.194Z,8.07
2018-06-25T06:53:53.175Z,6.70
2018-06-25T06:56:22.206Z,5.60
2018-06-25T06:58:51.544Z,6.40
2018-06-25T07:01:21.040Z,6.83
2018-06-25T07:03:50.090Z,5.83
2018-06-25T07:06:19.324Z,7.40
2018-06-25T07:08:47.767Z,6.80
2018-06-25T07:11:17.427Z,5.40
2018-06-25T07:13:46.354Z,7.80
2018-06-25T07:16:15.285Z,5.67
2018-06-25T07:18:44.964Z,5.83
2018-06-25T07:21:15.673Z,9.63
2018-06-25T07:23:45.045Z,14.33
2018-06-25T07:26:16.004Z,12.17
2018-06-25T07:28:45.627Z,7.27
2018-06-25T07:31:14.540Z,7.17
2018-06-25T07:33:43.907Z,5.97
2018-06-25T07:36:14.866Z,9.07
2018-06-25T07:38:44.367Z,6.27
2018-06-25T07:41:13.696Z,6.90
2018-06-25T07:43:43.770Z,5.00
2018-06-25T07:46:12.892Z,10.33
2018-06-25T07:48:43.680Z,8.27
2018-06-25T07:51:13.668Z,7.33
2018-06-25T07:53:43.873Z,5.20
2018-06-25T07:56:13.223Z,5.77
2018-06-25T07:58:43.552Z,5.73
2018-06-25T08:01:12.876Z,5.80
2018-06-25T08:03:42.611Z,5.87
2018-06-25T08:06:12.714Z,5.20
2018-06-25T08:08:42.265Z,7.73
2018-06-25T08:11:12.399Z,4.67
2018-06-25T08:13:41.983Z,6.60
2018-06-25T08:16:11.169Z,10.13
2018-06-25T08:18:39.932Z,5.77
2018-06-25T08:21:09.301Z,8.10
2018-06-25T08:23:38.325Z,4.97
2018-06-25T08:26:07.355Z,4.87
2018-06-25T08:28:36.421Z,5.67
2018-06-25T08:31:06.708Z,5.77
2018-06-25T08:33:36.700Z,5.03
2018-06-25T08:36:07.185Z,5.27
2018-06-25T08:38:36.186Z,5.63
2018-06-25T08:41:06.579Z,6.33
2018-06-25T08:43:36.244Z,6.10
2018-06-25T08:46:05.800Z,9.10
2018-06-25T08:48:34.644Z,7.33
2018-06-25T08:51:03.591Z,5.03
2018-06-25T08:53:33.262Z,5.77
2018-06-25T08:56:02.281Z,5.23
2018-06-25T08:58:31.741Z,5.30
2018-06-25T09:01:01.306Z,5.80
2018-06-25T09:03:29.653Z,4.77
2018-06-25T09:05:59.210Z,6.43
2018-06-25T09:08:29.218Z,4.90
2018-06-25T09:10:59.444Z,4.53
2018-06-25T09:13:29.093Z,5.50
2018-06-25T09:15:58.101Z,5.20
2018-06-25T09:18:27.439Z,4.73
2018-06-25T09:20:56.351Z,4.50
2018-06-25T09:23:26.168Z,5.00
2018-06-25T09:25:54.943Z,5.17
2018-06-25T09:28:23.724Z,4.70
2018-06-25T09:30:53.226Z,4.83
2018-06-25T09:33:22.567Z,10.60
2018-06-25T09:35:51.588Z,5.23
2018-06-25T09:38:20.355Z,4.40
2018-06-25T09:40:50.446Z,4.00
2018-06-25T09:43:19.425Z,5.60
2018-06-25T09:45:48.367Z,3.50
2018-06-25T09:48:17.209Z,4.57
2018-06-25T09:50:46.109Z,4.37
2018-06-25T09:53:15.574Z,4.47
2018-06-25T09:55:45.688Z,7.30
2018-06-25T09:58:15.879Z,6.77
2018-06-25T10:00:54.761Z,4.40
2018-06-25T10:03:27.267Z,3.73
2018-06-25T10:05:57.504Z,3.27
2018-06-25T10:08:28.597Z,3.67
2018-06-25T10:10:59.076Z,5.80
2018-06-25T10:13:33.273Z,6.33
2018-06-25T10:16:04.080Z,3.90
2018-06-25T10:18:34.330Z,4.20
2018-06-25T10:21:03.393Z,8.93
2018-06-25T10:23:33.548Z,7.17
2018-06-25T10:26:03.698Z,3.33
2018-06-25T10:28:33.850Z,7.73
2018-06-25T10:31:04.122Z,3.33
2018-06-25T10:33:37.244Z,4.73
2018-06-25T10:36:07.142Z,4.30
2018-06-25T10:38:36.068Z,8.57
2018-06-25T10:41:05.505Z,7.20
2018-06-25T10:43:34.601Z,7.03
2018-06-25T10:46:03.036Z,9.27
2018-06-25T10:48:31.884Z,4.73
2018-06-25T10:51:01.888Z,5.33
2018-06-25T10:53:30.928Z,6.60
2018-06-25T10:55:59.788Z,5.17
2018-06-25T10:58:28.511Z,7.83
2018-06-25T11:00:58.101Z,4.07
2018-06-25T11:03:27.175Z,4.10
2018-06-25T11:05:56.222Z,3.87
2018-06-25T11:08:26.615Z,3.90
2018-06-25T11:10:55.451Z,4.80
2018-06-25T11:13:24.320Z,3.73
2018-06-25T11:15:53.852Z,3.70
2018-06-25T11:18:23.043Z,4.00
2018-06-25T11:20:52.655Z,3.93
2018-06-25T11:23:21.815Z,4.43
2018-06-25T11:25:50.677Z,4.77
2018-06-25T11:28:20.529Z,3.97
2018-06-25T11:30:50.216Z,7.30
2018-06-25T11:33:20.685Z,4.37
2018-06-25T11:35:50.316Z,4.37
2018-06-25T11:38:20.686Z,5.80
2018-06-25T11:40:49.462Z,4.10
2018-06-25T11:43:18.899Z,5.37
2018-06-25T11:45:48.029Z,4.33
2018-06-25T11:48:17.891Z,4.00
2018-06-25T11:50:46.917Z,4.17
2018-06-25T11:53:15.884Z,7.27
2018-06-25T11:55:44.745Z,8.37
2018-06-25T11:58:13.512Z,6.67
2018-06-25T12:00:43.637Z,4.77
2018-06-25T12:03:13.041Z,4.57
2018-06-25T12:05:42.735Z,4.70
2018-06-25T12:08:12.395Z,4.13
2018-06-25T12:10:42.342Z,4.47
2018-06-25T12:13:13.332Z,9.13
2018-06-25T12:15:42.828Z,7.37
2018-06-25T12:18:16.005Z,4.10
2018-06-25T12:20:45.638Z,4.70
2018-06-25T12:23:15.090Z,6.23
2018-06-25T12:25:44.380Z,3.73
2018-06-25T12:28:13.293Z,4.87
2018-06-25T12:30:43.329Z,4.27
2018-06-25T12:33:12.982Z,5.00
2018-06-25T12:35:42.239Z,5.60
2018-06-25T12:38:12.905Z,3.70
2018-06-25T12:40:41.890Z,4.97
2018-06-25T12:43:11.548Z,4.43
2018-06-25T12:45:40.701Z,4.63
2018-06-25T12:48:09.790Z,3.73
2018-06-25T12:50:38.760Z,7.53
2018-06-25T12:53:08.591Z,5.40
2018-06-25T12:55:37.584Z,5.43
2018-06-25T12:58:08.386Z,4.53
2018-06-25T13:00:37.987Z,5.20
2018-06-25T13:03:07.453Z,4.87
2018-06-25T13:05:36.954Z,5.37
2018-06-25T13:08:06.177Z,6.30
2018-06-25T13:10:35.254Z,4.83
2018-06-25T13:13:04.900Z,5.13
2018-06-25T13:15:38.576Z,5.40
2018-06-25T13:18:08.185Z,4.70
2018-06-25T13:20:38.397Z,4.20
2018-06-25T13:23:08.820Z,6.83
2018-06-25T13:25:37.756Z,5.00
2018-06-25T13:28:11.131Z,7.37
2018-06-25T13:30:40.621Z,19.90
2018-06-25T13:33:10.364Z,6.40
2018-06-25T13:35:45.472Z,4.97
2018-06-25T13:38:15.742Z,4.17
2018-06-25T13:40:49.378Z,4.53
2018-06-25T13:43:18.457Z,5.40
2018-06-25T13:45:46.860Z,4.70
2018-06-25T13:48:16.386Z,4.43
2018-06-25T13:50:46.043Z,4.17
2018-06-25T13:53:16.120Z,4.23
2018-06-25T13:55:44.939Z,4.70
2018-06-25T13:58:19.012Z,5.53
2018-06-25T14:00:47.965Z,6.03
2018-06-25T14:03:16.315Z,3.93
2018-06-25T14:05:45.434Z,5.80
2018-06-25T14:08:14.429Z,3.70
2018-06-25T14:10:43.824Z,7.43
2018-06-25T14:13:12.820Z,3.53
2018-06-25T14:15:42.947Z,2.50
2018-06-25T14:18:11.945Z,3.93
2018-06-25T14:20:41.483Z,3.70
2018-06-25T14:23:17.219Z,2.47
2018-06-25T14:25:51.590Z,2.53
2018-06-25T14:28:27.273Z,2.40
2018-06-25T14:31:02.001Z,2.67
2018-06-25T14:33:38.161Z,3.23
2018-06-25T14:36:07.754Z,2.00
2018-06-25T14:38:37.589Z,2.17
2018-06-25T14:41:07.483Z,2.03
2018-06-25T14:43:37.008Z,2.30
2018-06-25T14:46:06.067Z,2.53
2018-06-25T14:48:35.155Z,2.37
2018-06-25T14:51:04.027Z,2.67
2018-06-25T14:53:34.239Z,3.03
2018-06-25T14:56:02.678Z,2.67
2018-06-25T14:58:31.769Z,2.70
2018-06-25T15:01:01.086Z,3.13
2018-06-25T15:03:29.939Z,2.90
2018-06-25T15:05:59.053Z,4.60
2018-06-25T15:08:28.014Z,3.57
2018-06-25T15:10:58.705Z,4.30
2018-06-25T15:13:29.280Z,4.60
2018-06-25T15:15:59.814Z,3.60
2018-06-25T15:18:28.816Z,3.90
2018-06-25T15:20:57.900Z,5.53
2018-06-25T15:23:28.541Z,3.87
2018-06-25T15:25:57.626Z,3.50
2018-06-25T15:28:26.804Z,4.40
2018-06-25T15:30:56.128Z,4.27
2018-06-25T15:33:25.674Z,3.63
2018-06-25T15:35:54.858Z,3.80
2018-06-25T15:38:24.867Z,3.40
2018-06-25T15:40:54.097Z,4.43
2018-06-25T15:43:23.089Z,4.27
2018-06-25T15:45:53.194Z,3.60
2018-06-25T15:48:23.469Z,7.17
2018-06-25T15:50:52.838Z,4.60
2018-06-25T15:53:21.749Z,3.90
2018-06-25T15:55:50.713Z,3.40
2018-06-25T15:58:19.937Z,3.53
2018-06-25T16:00:52.585Z,3.07
2018-06-25T16:03:21.969Z,3.60
2018-06-25T16:05:50.833Z,3.20
2018-06-25T16:08:21.753Z,6.83
2018-06-25T16:10:51.597Z,4.30
2018-06-25T16:13:20.791Z,3.13
2018-06-25T16:15:49.200Z,3.80
2018-06-25T16:18:18.776Z,3.60
2018-06-25T16:20:48.051Z,3.80
2018-06-25T16:23:17.846Z,5.07
2018-06-25T16:25:46.706Z,4.70
2018-06-25T16:28:16.629Z,8.77
2018-06-25T16:30:45.377Z,7.63
2018-06-25T16:33:15.026Z,5.20
2018-06-25T16:35:44.212Z,4.23
2018-06-25T16:38:13.264Z,6.90
2018-06-25T16:43:22.127Z,6.33
2018-06-25T16:45:51.111Z,4.70
2018-06-25T16:48:19.867Z,5.80
2018-06-25T16:50:49.706Z,3.70
2018-06-25T16:53:19.149Z,8.37
2018-06-25T16:55:48.784Z,4.20
2018-06-25T16:58:18.621Z,3.80
2018-06-25T17:00:47.935Z,4.27
2018-06-25T17:03:16.869Z,4.17
2018-06-25T17:05:45.807Z,4.83
2018-06-25T17:08:15.763Z,5.03
2018-06-25T17:10:45.587Z,14.73
2018-06-25T17:13:14.472Z,7.13
2018-06-25T17:15:43.393Z,8.07
2018-06-25T17:18:12.184Z,7.07
2018-06-25T17:20:41.016Z,7.60
2018-06-25T17:23:10.483Z,6.07
2018-06-25T17:25:39.336Z,6.20
2018-06-25T17:28:08.136Z,6.60
2018-06-25T17:30:37.124Z,6.23
2018-06-25T17:33:06.237Z,5.67
2018-06-25T17:35:35.189Z,6.40
2018-06-25T17:38:04.277Z,6.30
2018-06-25T17:40:33.402Z,6.23
2018-06-25T17:43:09.036Z,5.80
2018-06-25T17:45:38.105Z,5.80
2018-06-25T17:48:07.769Z,6.30
2018-06-25T17:50:37.258Z,7.27
2018-06-25T17:53:07.083Z,6.43
2018-06-25T17:55:36.046Z,5.40
2018-06-25T17:58:05.356Z,10.63
2018-06-25T18:00:34.317Z,5.97
2018-06-25T18:03:03.751Z,8.40
2018-06-25T18:05:32.773Z,11.50
2018-06-25T18:08:01.870Z,8.13
2018-06-25T18:10:31.423Z,8.57
2018-06-25T18:13:00.354Z,7.60
2018-06-25T18:15:29.824Z,9.47
2018-06-25T18:17:59.397Z,7.13
2018-06-25T18:20:29.593Z,11.03
2018-06-25T18:22:58.909Z,13.73
2018-06-25T18:25:28.478Z,9.23
2018-06-25T18:27:57.626Z,8.67
2018-06-25T18:30:26.672Z,11.30
2018-06-25T18:32:55.647Z,18.40
2018-06-25T18:35:25.234Z,11.77
2018-06-25T18:37:54.313Z,5.90
2018-06-25T18:40:24.106Z,9.20
2018-06-25T18:42:53.336Z,13.90
2018-06-25T18:45:23.004Z,14.00
2018-06-25T18:47:52.471Z,10.17
2018-06-25T18:50:21.848Z,8.60
2018-06-25T18:52:50.997Z,10.87
2018-06-25T18:55:20.110Z,14.07
2018-06-25T18:57:49.200Z,16.27
2018-06-25T19:00:18.566Z,23.97
2018-06-25T19:02:47.580Z,9.50
2018-06-25T19:05:17.856Z,12.00
2018-06-25T19:07:46.966Z,12.63
2018-06-25T19:10:16.805Z,8.50
2018-06-25T19:12:46.357Z,6.87
2018-06-25T19:15:15.500Z,10.83
2018-06-25T19:17:44.544Z,12.10
2018-06-25T19:20:15.719Z,13.63
2018-06-25T19:22:44.883Z,16.50
2018-06-25T19:25:13.587Z,14.93
2018-06-25T19:27:42.690Z,12.33
2018-06-25T19:30:11.565Z,15.07
2018-06-25T19:32:41.813Z,10.90
2018-06-25T19:35:11.817Z,12.87
2018-06-25T19:37:41.341Z,9.57
2018-06-25T19:40:10.652Z,19.30
2018-06-25T19:42:40.000Z,11.77
2018-06-25T19:45:09.319Z,11.23
2018-06-25T19:47:38.852Z,9.40
2018-06-25T19:50:08.185Z,16.47
2018-06-25T19:52:38.484Z,5.97
2018-06-25T19:55:07.943Z,7.07
2018-06-25T19:57:37.097Z,9.50
2018-06-25T20:00:07.146Z,10.80
2018-06-25T20:02:35.987Z,11.47
2018-06-25T20:05:05.710Z,10.97
2018-06-25T20:07:36.248Z,7.10
2018-06-25T20:10:06.569Z,9.00
2018-06-25T20:12:35.575Z,12.93
2018-06-25T20:15:04.790Z,6.53
2018-06-25T20:17:33.783Z,7.00
2018-06-25T20:20:02.765Z,5.57
2018-06-25T20:22:31.744Z,9.23
2018-06-25T20:25:00.761Z,4.90
2018-06-25T20:27:29.938Z,8.10
2018-06-25T20:29:59.238Z,7.30
2018-06-25T20:32:28.996Z,15.43
2018-06-25T20:34:58.789Z,7.63
2018-06-25T20:37:27.827Z,13.37
2018-06-25T20:39:57.098Z,12.90
2018-06-25T20:42:26.322Z,9.63
2018-06-25T20:44:55.651Z,11.37
2018-06-25T20:47:30.440Z,11.40
2018-06-25T20:49:59.988Z,16.17
2018-06-25T20:52:28.906Z,7.33
2018-06-25T20:55:03.532Z,3.60
2018-06-25T20:57:32.277Z,4.70
2018-06-25T21:00:01.932Z,5.80
2018-06-25T21:02:32.119Z,6.60
2018-06-25T21:05:01.777Z,3.90
2018-06-25T21:07:30.746Z,3.90
2018-06-25T21:09:59.598Z,3.90
2018-06-25T21:12:29.120Z,3.93
2018-06-25T21:14:57.858Z,3.80
2018-06-25T21:17:28.011Z,3.13
2018-06-25T21:19:57.134Z,5.03
2018-06-25T21:22:26.369Z,3.67
2018-06-25T21:24:55.207Z,3.77
2018-06-25T21:27:24.974Z,3.00
2018-06-25T21:29:54.820Z,3.27
2018-06-25T21:32:24.436Z,4.40
2018-06-25T21:34:53.233Z,3.90
2018-06-25T21:37:23.144Z,3.07
2018-06-25T21:39:51.837Z,3.20
2018-06-25T21:42:20.538Z,3.07
2018-06-25T21:44:49.314Z,3.30
2018-06-25T21:47:18.371Z,3.30
2018-06-25T21:49:47.383Z,5.00
2018-06-25T21:52:16.055Z,2.80
2018-06-25T21:54:45.065Z,3.73
2018-06-25T21:57:14.512Z,3.30
2018-06-25T21:59:44.382Z,2.90
2018-06-25T22:02:16.898Z,3.10
2018-06-25T22:04:45.762Z,2.67
2018-06-25T22:07:14.500Z,2.93
2018-06-25T22:09:43.182Z,4.30
2018-06-25T22:12:11.918Z,3.37
2018-06-25T22:14:41.265Z,3.30
2018-06-25T22:17:10.060Z,3.37
2018-06-25T22:19:40.489Z,7.57
2018-06-25T22:22:10.229Z,3.77
2018-06-25T22:24:39.846Z,3.20
2018-06-25T22:27:09.119Z,3.90
2018-06-25T22:29:38.573Z,3.20
2018-06-25T22:32:07.514Z,4.40
2018-06-25T22:34:36.485Z,3.93
2018-06-25T22:37:05.338Z,3.30
2018-06-25T22:39:35.614Z,4.40
2018-06-25T22:42:05.477Z,3.73
2018-06-25T22:44:34.221Z,3.50
2018-06-25T22:47:05.083Z,3.27
2018-06-25T22:49:34.802Z,4.60
2018-06-25T22:52:03.518Z,3.33
2018-06-25T22:54:32.984Z,3.70
2018-06-25T22:57:01.787Z,4.00
2018-06-25T22:59:30.787Z,4.30
2018-06-25T23:01:59.556Z,3.80
2018-06-25T23:04:28.241Z,3.50
2018-06-25T23:06:57.552Z,4.33
2018-06-25T23:09:27.108Z,3.90
2018-06-25T23:11:55.786Z,3.40
2018-06-25T23:14:24.497Z,3.83
2018-06-25T23:16:53.445Z,3.70
2018-06-25T23:19:22.189Z,3.77
2018-06-25T23:21:51.659Z,3.80
2018-06-25T23:24:20.445Z,3.20
2018-06-25T23:26:49.565Z,3.60
2018-06-25T23:29:19.433Z,3.73
2018-06-25T23:31:48.064Z,3.33
2018-06-25T23:34:22.664Z,4.30
2018-06-25T23:36:51.403Z,3.90
2018-06-25T23:39:20.123Z,4.20
2018-06-25T23:41:49.604Z,4.57
2018-06-25T23:44:18.575Z,3.87
2018-06-25T23:46:47.494Z,3.50
2018-06-25T23:49:16.262Z,4.93
2018-06-25T23:51:45.462Z,4.30
2018-06-25T23:54:14.207Z,3.70
2018-06-25T23:56:43.225Z,3.60
2018-06-25T23:59:13.677Z,4.00
